Elmhurst, Pennsylvania
Current Conditions -  °F | °C
As of 7:54 PM on Saturday 22 Nov 2014 (Local Time) from KAVP Reporting Station
Overcast Overcast  
Wind Chill:   Ceiling: 4200
Heat Index:   Visibility: 10mi
Dew Point: -8°   Wind: 6mph
Humidity: 43%   Direction: 230°SW
Pressure: 30.17"   Gusts: NA
Location:  41.38°N, 75.54°W
Report Text: KAVP 230054Z 23005KT 10SM OVC042 03/M08 A3017 RMK AO2 SLP226 T00331083
Loading
Personal Weather Stations






























Interactive Weather Map New forecast layout! Learn more

10-Day Weather Forecast

Advertisements
Track Severe Weather on mobile